sensor_id;sensor_type;location;lat;lon;timestamp;P1;durP1;ratioP1;P2;durP2;ratioP2
77868;SDS011;67231;59.144;37.934;2023-05-08T00:00:41;6.20;;;2.40;;
77868;SDS011;67231;59.144;37.934;2023-05-08T00:03:08;2.83;;;1.70;;
77868;SDS011;67231;59.144;37.934;2023-05-08T00:05:34;4.63;;;1.80;;
77868;SDS011;67231;59.144;37.934;2023-05-08T00:08:01;8.55;;;2.10;;
77868;SDS011;67231;59.144;37.934;2023-05-08T00:10:27;5.68;;;1.98;;
77868;SDS011;67231;59.144;37.934;2023-05-08T00:12:54;5.47;;;1.98;;
77868;SDS011;67231;59.144;37.934;2023-05-08T00:15:22;8.52;;;3.08;;
77868;SDS011;67231;59.144;37.934;2023-05-08T00:17:48;6.35;;;3.00;;
77868;SDS011;67231;59.144;37.934;2023-05-08T00:20:15;10.93;;;3.42;;
77868;SDS011;67231;59.144;37.934;2023-05-08T00:22:41;9.00;;;3.58;;
77868;SDS011;67231;59.144;37.934;2023-05-08T00:25:07;11.35;;;3.67;;
77868;SDS011;67231;59.144;37.934;2023-05-08T00:27:34;10.20;;;3.13;;
77868;SDS011;67231;59.144;37.934;2023-05-08T00:30:00;11.27;;;3.20;;
77868;SDS011;67231;59.144;37.934;2023-05-08T00:32:28;6.15;;;2.67;;
77868;SDS011;67231;59.144;37.934;2023-05-08T00:34:55;11.23;;;3.20;;
77868;SDS011;67231;59.144;37.934;2023-05-08T00:37:21;6.20;;;2.17;;
77868;SDS011;67231;59.144;37.934;2023-05-08T00:39:47;4.90;;;2.13;;
77868;SDS011;67231;59.144;37.934;2023-05-08T00:42:14;6.60;;;2.63;;
77868;SDS011;67231;59.144;37.934;2023-05-08T00:44:40;9.40;;;2.80;;
77868;SDS011;67231;59.144;37.934;2023-05-08T00:47:07;9.23;;;3.45;;
77868;SDS011;67231;59.144;37.934;2023-05-08T00:49:34;17.00;;;4.40;;
77868;SDS011;67231;59.144;37.934;2023-05-08T00:52:01;22.70;;;5.85;;
77868;SDS011;67231;59.144;37.934;2023-05-08T00:54:29;27.33;;;7.53;;
77868;SDS011;67231;59.144;37.934;2023-05-08T00:56:56;27.15;;;9.40;;
77868;SDS011;67231;59.144;37.934;2023-05-08T00:59:24;27.92;;;9.20;;
77868;SDS011;67231;59.144;37.934;2023-05-08T01:01:51;34.25;;;9.75;;
77868;SDS011;67231;59.144;37.934;2023-05-08T01:04:18;36.05;;;11.40;;
77868;SDS011;67231;59.144;37.934;2023-05-08T01:06:49;46.75;;;11.35;;
77868;SDS011;67231;59.144;37.934;2023-05-08T01:09:16;39.25;;;12.57;;
77868;SDS011;67231;59.144;37.934;2023-05-08T01:11:44;39.92;;;11.45;;
77868;SDS011;67231;59.144;37.934;2023-05-08T01:14:28;41.65;;;12.48;;
77868;SDS011;67231;59.144;37.934;2023-05-08T01:17:08;33.25;;;10.75;;
77868;SDS011;67231;59.144;37.934;2023-05-08T01:32:00;18.45;;;5.57;;
77868;SDS011;67231;59.144;37.934;2023-05-08T01:34:30;14.05;;;5.32;;
77868;SDS011;67231;59.144;37.934;2023-05-08T01:37:02;12.18;;;3.85;;
77868;SDS011;67231;59.144;37.934;2023-05-08T01:39:42;9.30;;;3.70;;
77868;SDS011;67231;59.144;37.934;2023-05-08T01:42:17;5.40;;;2.38;;
77868;SDS011;67231;59.144;37.934;2023-05-08T01:47:35;7.05;;;2.42;;
77868;SDS011;67231;59.144;37.934;2023-05-08T01:52:35;9.38;;;2.08;;
77868;SDS011;67231;59.144;37.934;2023-05-08T01:55:19;5.68;;;1.88;;
77868;SDS011;67231;59.144;37.934;2023-05-08T01:57:50;4.25;;;1.85;;
77868;SDS011;67231;59.144;37.934;2023-05-08T02:00:20;5.75;;;1.80;;
77868;SDS011;67231;59.144;37.934;2023-05-08T02:02:48;5.05;;;2.10;;
77868;SDS011;67231;59.144;37.934;2023-05-08T02:05:16;6.63;;;2.30;;
77868;SDS011;67231;59.144;37.934;2023-05-08T02:07:46;4.28;;;2.05;;
77868;SDS011;67231;59.144;37.934;2023-05-08T02:10:14;3.30;;;1.90;;
77868;SDS011;67231;59.144;37.934;2023-05-08T02:12:42;6.93;;;2.28;;
77868;SDS011;67231;59.144;37.934;2023-05-08T02:15:10;7.28;;;2.25;;
77868;SDS011;67231;59.144;37.934;2023-05-08T02:17:39;6.45;;;2.08;;
77868;SDS011;67231;59.144;37.934;2023-05-08T02:20:06;9.40;;;2.47;;
77868;SDS011;67231;59.144;37.934;2023-05-08T02:22:43;8.18;;;2.10;;
77868;SDS011;67231;59.144;37.934;2023-05-08T02:25:11;4.35;;;1.92;;
77868;SDS011;67231;59.144;37.934;2023-05-08T02:27:40;3.17;;;1.88;;
77868;SDS011;67231;59.144;37.934;2023-05-08T02:30:13;3.80;;;2.10;;
77868;SDS011;67231;59.144;37.934;2023-05-08T02:32:42;4.90;;;2.20;;
77868;SDS011;67231;59.144;37.934;2023-05-08T02:35:14;7.47;;;2.55;;
77868;SDS011;67231;59.144;37.934;2023-05-08T02:37:43;17.38;;;5.65;;
77868;SDS011;67231;59.144;37.934;2023-05-08T02:40:13;16.10;;;5.32;;
77868;SDS011;67231;59.144;37.934;2023-05-08T02:42:43;10.32;;;4.07;;
77868;SDS011;67231;59.144;37.934;2023-05-08T02:45:11;5.22;;;2.88;;
77868;SDS011;67231;59.144;37.934;2023-05-08T02:50:08;4.63;;;2.28;;
77868;SDS011;67231;59.144;37.934;2023-05-08T02:52:51;6.40;;;2.42;;
77868;SDS011;67231;59.144;37.934;2023-05-08T02:58:10;10.52;;;4.03;;
77868;SDS011;67231;59.144;37.934;2023-05-08T03:00:59;11.70;;;4.88;;
77868;SDS011;67231;59.144;37.934;2023-05-08T03:03:43;17.90;;;6.68;;
77868;SDS011;67231;59.144;37.934;2023-05-08T03:06:12;20.92;;;6.80;;
77868;SDS011;67231;59.144;37.934;2023-05-08T03:08:42;17.85;;;7.00;;
77868;SDS011;67231;59.144;37.934;2023-05-08T03:11:14;30.17;;;8.68;;
77868;SDS011;67231;59.144;37.934;2023-05-08T03:13:43;36.30;;;11.30;;
77868;SDS011;67231;59.144;37.934;2023-05-08T03:16:20;49.22;;;14.30;;
77868;SDS011;67231;59.144;37.934;2023-05-08T03:18:54;52.47;;;15.77;;
77868;SDS011;67231;59.144;37.934;2023-05-08T03:21:27;54.33;;;15.90;;
77868;SDS011;67231;59.144;37.934;2023-05-08T03:23:56;60.47;;;16.30;;
77868;SDS011;67231;59.144;37.934;2023-05-08T03:26:25;58.53;;;15.65;;
77868;SDS011;67231;59.144;37.934;2023-05-08T03:28:52;50.35;;;15.52;;
77868;SDS011;67231;59.144;37.934;2023-05-08T03:31:23;61.25;;;17.88;;
77868;SDS011;67231;59.144;37.934;2023-05-08T03:33:52;64.25;;;19.25;;
77868;SDS011;67231;59.144;37.934;2023-05-08T03:36:20;56.72;;;18.45;;
77868;SDS011;67231;59.144;37.934;2023-05-08T03:38:47;40.75;;;12.05;;
77868;SDS011;67231;59.144;37.934;2023-05-08T03:41:14;29.88;;;8.07;;
77868;SDS011;67231;59.144;37.934;2023-05-08T03:43:40;16.13;;;5.10;;
77868;SDS011;67231;59.144;37.934;2023-05-08T03:46:08;14.13;;;5.28;;
77868;SDS011;67231;59.144;37.934;2023-05-08T03:48:36;12.18;;;4.65;;
77868;SDS011;67231;59.144;37.934;2023-05-08T03:51:04;12.48;;;5.22;;
77868;SDS011;67231;59.144;37.934;2023-05-08T03:53:32;10.05;;;4.72;;
77868;SDS011;67231;59.144;37.934;2023-05-08T03:55:59;18.08;;;4.40;;
77868;SDS011;67231;59.144;37.934;2023-05-08T04:01:31;11.45;;;2.90;;
77868;SDS011;67231;59.144;37.934;2023-05-08T04:04:12;9.25;;;3.15;;
77868;SDS011;67231;59.144;37.934;2023-05-08T04:09:26;19.00;;;6.05;;
77868;SDS011;67231;59.144;37.934;2023-05-08T04:14:47;34.65;;;9.52;;
77868;SDS011;67231;59.144;37.934;2023-05-08T04:17:31;19.60;;;6.57;;
77868;SDS011;67231;59.144;37.934;2023-05-08T04:20:03;23.52;;;6.25;;
77868;SDS011;67231;59.144;37.934;2023-05-08T04:22:38;19.98;;;6.35;;
77868;SDS011;67231;59.144;37.934;2023-05-08T04:25:10;18.15;;;5.97;;
77868;SDS011;67231;59.144;37.934;2023-05-08T04:27:43;23.17;;;7.55;;
77868;SDS011;67231;59.144;37.934;2023-05-08T04:30:16;23.27;;;7.00;;
77868;SDS011;67231;59.144;37.934;2023-05-08T04:32:44;20.15;;;7.22;;
77868;SDS011;67231;59.144;37.934;2023-05-08T04:35:18;25.58;;;6.82;;
77868;SDS011;67231;59.144;37.934;2023-05-08T04:37:48;30.48;;;8.32;;
77868;SDS011;67231;59.144;37.934;2023-05-08T04:40:17;24.35;;;8.05;;
77868;SDS011;67231;59.144;37.934;2023-05-08T04:42:46;26.15;;;8.13;;
77868;SDS011;67231;59.144;37.934;2023-05-08T04:45:13;27.35;;;7.30;;
77868;SDS011;67231;59.144;37.934;2023-05-08T04:47:41;15.70;;;4.97;;
77868;SDS011;67231;59.144;37.934;2023-05-08T04:50:07;30.83;;;10.27;;
77868;SDS011;67231;59.144;37.934;2023-05-08T04:52:34;40.67;;;12.32;;
77868;SDS011;67231;59.144;37.934;2023-05-08T04:55:01;39.75;;;11.63;;
77868;SDS011;67231;59.144;37.934;2023-05-08T04:57:30;56.45;;;15.70;;
77868;SDS011;67231;59.144;37.934;2023-05-08T04:59:56;51.53;;;16.98;;
77868;SDS011;67231;59.144;37.934;2023-05-08T05:02:24;52.20;;;15.43;;
77868;SDS011;67231;59.144;37.934;2023-05-08T05:04:51;54.72;;;16.27;;
77868;SDS011;67231;59.144;37.934;2023-05-08T05:07:18;50.83;;;16.02;;
77868;SDS011;67231;59.144;37.934;2023-05-08T05:09:44;23.85;;;7.90;;
77868;SDS011;67231;59.144;37.934;2023-05-08T05:12:11;18.45;;;5.32;;
77868;SDS011;67231;59.144;37.934;2023-05-08T05:14:37;15.30;;;4.32;;
77868;SDS011;67231;59.144;37.934;2023-05-08T05:17:03;8.07;;;3.05;;
77868;SDS011;67231;59.144;37.934;2023-05-08T05:19:30;11.88;;;2.88;;
77868;SDS011;67231;59.144;37.934;2023-05-08T05:21:56;7.28;;;2.63;;
77868;SDS011;67231;59.144;37.934;2023-05-08T05:24:23;17.27;;;6.00;;
77868;SDS011;67231;59.144;37.934;2023-05-08T05:26:49;23.98;;;8.18;;
77868;SDS011;67231;59.144;37.934;2023-05-08T05:29:16;23.50;;;7.80;;
77868;SDS011;67231;59.144;37.934;2023-05-08T05:31:42;27.75;;;9.73;;
77868;SDS011;67231;59.144;37.934;2023-05-08T05:34:09;29.13;;;10.13;;
77868;SDS011;67231;59.144;37.934;2023-05-08T05:36:35;36.05;;;12.60;;
77868;SDS011;67231;59.144;37.934;2023-05-08T05:39:01;38.78;;;12.15;;
77868;SDS011;67231;59.144;37.934;2023-05-08T05:41:29;44.13;;;13.05;;
77868;SDS011;67231;59.144;37.934;2023-05-08T05:43:55;37.10;;;11.48;;
77868;SDS011;67231;59.144;37.934;2023-05-08T05:46:21;40.25;;;12.70;;
77868;SDS011;67231;59.144;37.934;2023-05-08T05:48:53;31.40;;;11.05;;
77868;SDS011;67231;59.144;37.934;2023-05-08T05:51:19;17.00;;;5.90;;
77868;SDS011;67231;59.144;37.934;2023-05-08T05:53:45;21.85;;;6.78;;
77868;SDS011;67231;59.144;37.934;2023-05-08T05:56:12;19.33;;;7.80;;
77868;SDS011;67231;59.144;37.934;2023-05-08T05:58:40;26.50;;;8.23;;
77868;SDS011;67231;59.144;37.934;2023-05-08T06:01:10;22.75;;;7.55;;
77868;SDS011;67231;59.144;37.934;2023-05-08T06:03:36;26.95;;;9.25;;
77868;SDS011;67231;59.144;37.934;2023-05-08T06:06:03;31.98;;;11.57;;
77868;SDS011;67231;59.144;37.934;2023-05-08T06:08:30;24.85;;;9.57;;
77868;SDS011;67231;59.144;37.934;2023-05-08T06:10:56;25.23;;;8.55;;
77868;SDS011;67231;59.144;37.934;2023-05-08T06:13:23;25.35;;;10.32;;
77868;SDS011;67231;59.144;37.934;2023-05-08T06:15:50;18.73;;;7.57;;
77868;SDS011;67231;59.144;37.934;2023-05-08T06:18:19;17.80;;;5.78;;
77868;SDS011;67231;59.144;37.934;2023-05-08T06:20:45;19.38;;;6.63;;
77868;SDS011;67231;59.144;37.934;2023-05-08T06:23:12;19.95;;;7.70;;
77868;SDS011;67231;59.144;37.934;2023-05-08T06:25:38;12.70;;;6.20;;
77868;SDS011;67231;59.144;37.934;2023-05-08T06:28:04;16.77;;;6.82;;
77868;SDS011;67231;59.144;37.934;2023-05-08T06:30:33;17.92;;;6.88;;
77868;SDS011;67231;59.144;37.934;2023-05-08T06:32:59;19.42;;;8.88;;
77868;SDS011;67231;59.144;37.934;2023-05-08T06:35:25;9.90;;;4.28;;
77868;SDS011;67231;59.144;37.934;2023-05-08T06:37:52;18.15;;;6.20;;
77868;SDS011;67231;59.144;37.934;2023-05-08T06:40:18;7.90;;;3.80;;
77868;SDS011;67231;59.144;37.934;2023-05-08T06:42:44;7.63;;;3.55;;
77868;SDS011;67231;59.144;37.934;2023-05-08T06:45:11;14.98;;;6.00;;
77868;SDS011;67231;59.144;37.934;2023-05-08T06:47:37;16.70;;;5.68;;
77868;SDS011;67231;59.144;37.934;2023-05-08T06:50:04;7.50;;;3.55;;
77868;SDS011;67231;59.144;37.934;2023-05-08T06:52:31;8.18;;;3.20;;
77868;SDS011;67231;59.144;37.934;2023-05-08T06:54:57;7.05;;;3.08;;
77868;SDS011;67231;59.144;37.934;2023-05-08T06:57:24;9.52;;;3.30;;
77868;SDS011;67231;59.144;37.934;2023-05-08T06:59:52;12.07;;;4.18;;
77868;SDS011;67231;59.144;37.934;2023-05-08T07:02:18;11.30;;;4.13;;
77868;SDS011;67231;59.144;37.934;2023-05-08T07:04:45;18.20;;;5.47;;
77868;SDS011;67231;59.144;37.934;2023-05-08T07:07:11;16.50;;;4.82;;
77868;SDS011;67231;59.144;37.934;2023-05-08T07:09:39;9.57;;;3.72;;
77868;SDS011;67231;59.144;37.934;2023-05-08T07:12:05;9.15;;;3.90;;
77868;SDS011;67231;59.144;37.934;2023-05-08T07:14:33;15.98;;;5.60;;
77868;SDS011;67231;59.144;37.934;2023-05-08T07:17:01;13.55;;;4.72;;
77868;SDS011;67231;59.144;37.934;2023-05-08T07:19:32;13.60;;;6.15;;
77868;SDS011;67231;59.144;37.934;2023-05-08T07:22:02;13.32;;;5.10;;
77868;SDS011;67231;59.144;37.934;2023-05-08T07:24:30;13.18;;;5.30;;
77868;SDS011;67231;59.144;37.934;2023-05-08T07:26:57;5.80;;;2.40;;
77868;SDS011;67231;59.144;37.934;2023-05-08T07:29:25;4.45;;;2.00;;
77868;SDS011;67231;59.144;37.934;2023-05-08T07:31:51;5.55;;;2.33;;
77868;SDS011;67231;59.144;37.934;2023-05-08T07:34:21;9.50;;;3.25;;
77868;SDS011;67231;59.144;37.934;2023-05-08T07:36:47;14.13;;;4.32;;
77868;SDS011;67231;59.144;37.934;2023-05-08T07:39:13;7.07;;;2.65;;
77868;SDS011;67231;59.144;37.934;2023-05-08T07:41:40;5.03;;;2.30;;
77868;SDS011;67231;59.144;37.934;2023-05-08T07:44:12;6.82;;;2.50;;
77868;SDS011;67231;59.144;37.934;2023-05-08T07:46:39;6.20;;;2.55;;
77868;SDS011;67231;59.144;37.934;2023-05-08T07:49:05;6.47;;;2.60;;
77868;SDS011;67231;59.144;37.934;2023-05-08T07:51:31;8.15;;;2.45;;
77868;SDS011;67231;59.144;37.934;2023-05-08T07:53:58;9.27;;;3.72;;
77868;SDS011;67231;59.144;37.934;2023-05-08T07:56:24;4.07;;;2.10;;
77868;SDS011;67231;59.144;37.934;2023-05-08T07:58:50;4.25;;;2.03;;
77868;SDS011;67231;59.144;37.934;2023-05-08T08:01:17;4.05;;;1.67;;
77868;SDS011;67231;59.144;37.934;2023-05-08T08:03:46;7.47;;;3.63;;
77868;SDS011;67231;59.144;37.934;2023-05-08T08:06:12;8.15;;;3.90;;
77868;SDS011;67231;59.144;37.934;2023-05-08T08:08:39;11.05;;;3.20;;
77868;SDS011;67231;59.144;37.934;2023-05-08T08:11:05;10.15;;;4.00;;
77868;SDS011;67231;59.144;37.934;2023-05-08T08:13:32;13.95;;;5.13;;
77868;SDS011;67231;59.144;37.934;2023-05-08T08:15:59;14.23;;;5.03;;
77868;SDS011;67231;59.144;37.934;2023-05-08T08:18:26;10.45;;;3.30;;
77868;SDS011;67231;59.144;37.934;2023-05-08T08:20:52;7.80;;;2.80;;
77868;SDS011;67231;59.144;37.934;2023-05-08T08:23:18;11.38;;;3.40;;
77868;SDS011;67231;59.144;37.934;2023-05-08T08:25:44;10.82;;;4.60;;
77868;SDS011;67231;59.144;37.934;2023-05-08T08:28:11;15.65;;;5.30;;
77868;SDS011;67231;59.144;37.934;2023-05-08T08:30:37;15.23;;;5.80;;
77868;SDS011;67231;59.144;37.934;2023-05-08T08:33:03;13.48;;;4.97;;
77868;SDS011;67231;59.144;37.934;2023-05-08T08:35:31;5.85;;;2.30;;
77868;SDS011;67231;59.144;37.934;2023-05-08T08:37:59;2.83;;;1.85;;
77868;SDS011;67231;59.144;37.934;2023-05-08T08:40:25;4.45;;;1.83;;
77868;SDS011;67231;59.144;37.934;2023-05-08T08:42:52;3.20;;;1.63;;
77868;SDS011;67231;59.144;37.934;2023-05-08T08:45:19;3.88;;;1.80;;
77868;SDS011;67231;59.144;37.934;2023-05-08T08:47:46;7.07;;;2.17;;
77868;SDS011;67231;59.144;37.934;2023-05-08T08:50:13;4.82;;;1.80;;
77868;SDS011;67231;59.144;37.934;2023-05-08T08:55:08;3.55;;;1.60;;
77868;SDS011;67231;59.144;37.934;2023-05-08T08:57:38;4.80;;;1.70;;
77868;SDS011;67231;59.144;37.934;2023-05-08T09:00:17;4.28;;;1.67;;
77868;SDS011;67231;59.144;37.934;2023-05-08T09:02:45;4.20;;;1.80;;
77868;SDS011;67231;59.144;37.934;2023-05-08T09:05:12;3.35;;;1.83;;
77868;SDS011;67231;59.144;37.934;2023-05-08T09:07:38;3.90;;;1.40;;
77868;SDS011;67231;59.144;37.934;2023-05-08T09:10:06;3.58;;;1.77;;
77868;SDS011;67231;59.144;37.934;2023-05-08T09:12:33;7.72;;;2.08;;
77868;SDS011;67231;59.144;37.934;2023-05-08T09:15:00;3.35;;;1.80;;
77868;SDS011;67231;59.144;37.934;2023-05-08T09:17:26;5.35;;;1.50;;
77868;SDS011;67231;59.144;37.934;2023-05-08T09:19:53;5.72;;;1.70;;
77868;SDS011;67231;59.144;37.934;2023-05-08T09:22:19;2.80;;;1.50;;
77868;SDS011;67231;59.144;37.934;2023-05-08T09:24:55;3.80;;;1.50;;
77868;SDS011;67231;59.144;37.934;2023-05-08T09:27:26;3.08;;;1.50;;
77868;SDS011;67231;59.144;37.934;2023-05-08T09:30:09;9.65;;;2.20;;
77868;SDS011;67231;59.144;37.934;2023-05-08T09:32:40;6.72;;;2.58;;
77868;SDS011;67231;59.144;37.934;2023-05-08T09:35:07;2.22;;;1.42;;
77868;SDS011;67231;59.144;37.934;2023-05-08T09:37:39;3.25;;;1.60;;
77868;SDS011;67231;59.144;37.934;2023-05-08T09:43:10;3.10;;;1.50;;
77868;SDS011;67231;59.144;37.934;2023-05-08T09:45:40;7.68;;;3.00;;
77868;SDS011;67231;59.144;37.934;2023-05-08T09:48:07;6.05;;;1.70;;
77868;SDS011;67231;59.144;37.934;2023-05-08T09:50:35;3.85;;;2.10;;
77868;SDS011;67231;59.144;37.934;2023-05-08T09:53:02;8.13;;;2.28;;
77868;SDS011;67231;59.144;37.934;2023-05-08T09:55:28;5.03;;;1.77;;
77868;SDS011;67231;59.144;37.934;2023-05-08T09:58:11;4.28;;;1.67;;
77868;SDS011;67231;59.144;37.934;2023-05-08T10:00:37;4.18;;;1.70;;
77868;SDS011;67231;59.144;37.934;2023-05-08T10:03:04;2.90;;;1.30;;
77868;SDS011;67231;59.144;37.934;2023-05-08T10:05:31;2.13;;;1.33;;
77868;SDS011;67231;59.144;37.934;2023-05-08T10:08:22;4.70;;;1.60;;
77868;SDS011;67231;59.144;37.934;2023-05-08T10:10:53;3.55;;;1.58;;
77868;SDS011;67231;59.144;37.934;2023-05-08T10:13:37;3.05;;;1.35;;
77868;SDS011;67231;59.144;37.934;2023-05-08T10:16:03;3.47;;;1.60;;
77868;SDS011;67231;59.144;37.934;2023-05-08T10:18:30;2.72;;;1.60;;
77868;SDS011;67231;59.144;37.934;2023-05-08T10:21:01;3.25;;;1.80;;
77868;SDS011;67231;59.144;37.934;2023-05-08T10:23:32;4.72;;;1.75;;
77868;SDS011;67231;59.144;37.934;2023-05-08T10:26:12;5.25;;;2.20;;
77868;SDS011;67231;59.144;37.934;2023-05-08T10:31:45;5.32;;;1.80;;
77868;SDS011;67231;59.144;37.934;2023-05-08T10:34:17;4.95;;;2.45;;
77868;SDS011;67231;59.144;37.934;2023-05-08T10:36:45;15.80;;;4.10;;
77868;SDS011;67231;59.144;37.934;2023-05-08T10:39:13;10.05;;;3.30;;
77868;SDS011;67231;59.144;37.934;2023-05-08T10:41:41;7.15;;;3.15;;
77868;SDS011;67231;59.144;37.934;2023-05-08T10:44:08;7.78;;;2.63;;
77868;SDS011;67231;59.144;37.934;2023-05-08T10:55:08;2.22;;;1.48;;
77868;SDS011;67231;59.144;37.934;2023-05-08T11:03:26;3.00;;;1.50;;
77868;SDS011;67231;59.144;37.934;2023-05-08T11:05:54;3.70;;;2.03;;
77868;SDS011;67231;59.144;37.934;2023-05-08T11:08:30;5.65;;;1.40;;
77868;SDS011;67231;59.144;37.934;2023-05-08T11:13:57;3.22;;;1.70;;
77868;SDS011;67231;59.144;37.934;2023-05-08T11:16:37;6.97;;;2.05;;
77868;SDS011;67231;59.144;37.934;2023-05-08T11:19:27;11.20;;;2.25;;
77868;SDS011;67231;59.144;37.934;2023-05-08T11:24:40;6.88;;;2.08;;
77868;SDS011;67231;59.144;37.934;2023-05-08T11:39:05;11.80;;;3.35;;
77868;SDS011;67231;59.144;37.934;2023-05-08T11:41:40;5.13;;;2.10;;
77868;SDS011;67231;59.144;37.934;2023-05-08T11:49:11;7.72;;;2.58;;
77868;SDS011;67231;59.144;37.934;2023-05-08T11:51:39;3.97;;;1.30;;
77868;SDS011;67231;59.144;37.934;2023-05-08T11:54:11;5.75;;;1.30;;
77868;SDS011;67231;59.144;37.934;2023-05-08T11:59:05;4.80;;;1.45;;
77868;SDS011;67231;59.144;37.934;2023-05-08T12:01:33;3.85;;;1.77;;
77868;SDS011;67231;59.144;37.934;2023-05-08T12:04:10;7.32;;;1.80;;
77868;SDS011;67231;59.144;37.934;2023-05-08T12:06:38;6.07;;;1.73;;
77868;SDS011;67231;59.144;37.934;2023-05-08T12:09:11;8.65;;;2.65;;
77868;SDS011;67231;59.144;37.934;2023-05-08T12:11:39;4.82;;;1.80;;
77868;SDS011;67231;59.144;37.934;2023-05-08T12:14:08;6.97;;;2.00;;
77868;SDS011;67231;59.144;37.934;2023-05-08T12:16:36;9.40;;;3.35;;
77868;SDS011;67231;59.144;37.934;2023-05-08T12:19:08;9.05;;;3.53;;
77868;SDS011;67231;59.144;37.934;2023-05-08T12:21:35;5.25;;;2.20;;
77868;SDS011;67231;59.144;37.934;2023-05-08T12:24:05;4.18;;;1.45;;
77868;SDS011;67231;59.144;37.934;2023-05-08T12:26:36;2.92;;;1.55;;
77868;SDS011;67231;59.144;37.934;2023-05-08T12:29:06;3.72;;;1.40;;
77868;SDS011;67231;59.144;37.934;2023-05-08T12:31:34;3.75;;;1.65;;
77868;SDS011;67231;59.144;37.934;2023-05-08T12:34:01;5.45;;;2.28;;
77868;SDS011;67231;59.144;37.934;2023-05-08T12:36:33;5.63;;;2.47;;
77868;SDS011;67231;59.144;37.934;2023-05-08T12:39:10;6.38;;;2.70;;
77868;SDS011;67231;59.144;37.934;2023-05-08T12:41:50;7.97;;;2.60;;
77868;SDS011;67231;59.144;37.934;2023-05-08T12:46:45;8.50;;;3.70;;
77868;SDS011;67231;59.144;37.934;2023-05-08T12:49:27;4.15;;;1.55;;
77868;SDS011;67231;59.144;37.934;2023-05-08T12:52:08;6.07;;;1.50;;
77868;SDS011;67231;59.144;37.934;2023-05-08T12:54:39;9.23;;;2.60;;
77868;SDS011;67231;59.144;37.934;2023-05-08T12:59:41;5.32;;;2.10;;
77868;SDS011;67231;59.144;37.934;2023-05-08T13:02:15;5.68;;;1.60;;
77868;SDS011;67231;59.144;37.934;2023-05-08T13:04:43;11.50;;;2.10;;
77868;SDS011;67231;59.144;37.934;2023-05-08T13:07:10;4.95;;;1.55;;
77868;SDS011;67231;59.144;37.934;2023-05-08T13:09:37;8.77;;;1.70;;
77868;SDS011;67231;59.144;37.934;2023-05-08T13:12:03;4.35;;;1.73;;
77868;SDS011;67231;59.144;37.934;2023-05-08T13:14:31;4.18;;;1.67;;
77868;SDS011;67231;59.144;37.934;2023-05-08T13:16:57;2.75;;;1.30;;
77868;SDS011;67231;59.144;37.934;2023-05-08T13:19:24;2.85;;;1.65;;
77868;SDS011;67231;59.144;37.934;2023-05-08T13:21:52;4.00;;;1.40;;
77868;SDS011;67231;59.144;37.934;2023-05-08T13:24:19;5.43;;;2.13;;
77868;SDS011;67231;59.144;37.934;2023-05-08T13:26:45;9.57;;;2.75;;
77868;SDS011;67231;59.144;37.934;2023-05-08T13:29:12;4.47;;;1.90;;
77868;SDS011;67231;59.144;37.934;2023-05-08T13:31:38;6.00;;;1.85;;
77868;SDS011;67231;59.144;37.934;2023-05-08T13:34:05;4.88;;;2.00;;
77868;SDS011;67231;59.144;37.934;2023-05-08T13:36:31;5.32;;;2.60;;
77868;SDS011;67231;59.144;37.934;2023-05-08T13:38:58;12.38;;;4.25;;
77868;SDS011;67231;59.144;37.934;2023-05-08T13:41:24;15.75;;;5.25;;
77868;SDS011;67231;59.144;37.934;2023-05-08T13:43:51;42.13;;;12.88;;
77868;SDS011;67231;59.144;37.934;2023-05-08T13:46:17;13.75;;;3.83;;
77868;SDS011;67231;59.144;37.934;2023-05-08T13:48:43;5.05;;;2.15;;
77868;SDS011;67231;59.144;37.934;2023-05-08T13:51:10;10.38;;;2.70;;
77868;SDS011;67231;59.144;37.934;2023-05-08T13:53:36;5.25;;;1.55;;
77868;SDS011;67231;59.144;37.934;2023-05-08T13:56:03;5.05;;;1.90;;
77868;SDS011;67231;59.144;37.934;2023-05-08T13:58:29;5.03;;;2.30;;
77868;SDS011;67231;59.144;37.934;2023-05-08T14:00:56;6.65;;;2.05;;
77868;SDS011;67231;59.144;37.934;2023-05-08T14:03:23;5.15;;;1.85;;
77868;SDS011;67231;59.144;37.934;2023-05-08T14:05:50;3.97;;;1.52;;
77868;SDS011;67231;59.144;37.934;2023-05-08T14:08:16;3.90;;;1.80;;
77868;SDS011;67231;59.144;37.934;2023-05-08T14:10:42;4.22;;;2.10;;
77868;SDS011;67231;59.144;37.934;2023-05-08T14:13:09;5.35;;;2.40;;
77868;SDS011;67231;59.144;37.934;2023-05-08T14:15:36;7.65;;;2.45;;
77868;SDS011;67231;59.144;37.934;2023-05-08T14:18:02;14.68;;;2.35;;
77868;SDS011;67231;59.144;37.934;2023-05-08T14:20:29;5.53;;;1.98;;
77868;SDS011;67231;59.144;37.934;2023-05-08T14:22:55;3.53;;;1.40;;
77868;SDS011;67231;59.144;37.934;2023-05-08T14:25:22;4.60;;;1.65;;
77868;SDS011;67231;59.144;37.934;2023-05-08T14:27:48;8.93;;;3.00;;
77868;SDS011;67231;59.144;37.934;2023-05-08T14:30:15;6.03;;;2.90;;
77868;SDS011;67231;59.144;37.934;2023-05-08T14:32:41;7.55;;;1.90;;
77868;SDS011;67231;59.144;37.934;2023-05-08T14:35:08;2.92;;;1.58;;
77868;SDS011;67231;59.144;37.934;2023-05-08T14:37:35;2.90;;;1.58;;
77868;SDS011;67231;59.144;37.934;2023-05-08T14:40:01;4.18;;;1.92;;
77868;SDS011;67231;59.144;37.934;2023-05-08T14:42:31;6.85;;;1.50;;
77868;SDS011;67231;59.144;37.934;2023-05-08T14:44:58;4.78;;;1.50;;
77868;SDS011;67231;59.144;37.934;2023-05-08T14:47:25;9.32;;;2.17;;
77868;SDS011;67231;59.144;37.934;2023-05-08T14:49:52;5.97;;;2.10;;
77868;SDS011;67231;59.144;37.934;2023-05-08T14:52:18;6.68;;;1.80;;
77868;SDS011;67231;59.144;37.934;2023-05-08T14:54:45;2.55;;;1.42;;
77868;SDS011;67231;59.144;37.934;2023-05-08T14:57:18;3.60;;;1.60;;
77868;SDS011;67231;59.144;37.934;2023-05-08T14:59:45;5.18;;;2.65;;
77868;SDS011;67231;59.144;37.934;2023-05-08T15:02:12;7.28;;;3.28;;
77868;SDS011;67231;59.144;37.934;2023-05-08T15:04:38;9.60;;;2.05;;
77868;SDS011;67231;59.144;37.934;2023-05-08T15:07:07;5.35;;;2.10;;
77868;SDS011;67231;59.144;37.934;2023-05-08T15:09:34;5.10;;;2.90;;
77868;SDS011;67231;59.144;37.934;2023-05-08T15:12:00;6.43;;;1.85;;
77868;SDS011;67231;59.144;37.934;2023-05-08T15:14:28;3.95;;;1.42;;
77868;SDS011;67231;59.144;37.934;2023-05-08T15:16:54;2.55;;;1.40;;
77868;SDS011;67231;59.144;37.934;2023-05-08T15:19:20;4.43;;;1.38;;
77868;SDS011;67231;59.144;37.934;2023-05-08T15:21:47;3.03;;;1.30;;
77868;SDS011;67231;59.144;37.934;2023-05-08T15:24:13;2.60;;;1.50;;
77868;SDS011;67231;59.144;37.934;2023-05-08T15:26:39;3.22;;;1.42;;
77868;SDS011;67231;59.144;37.934;2023-05-08T15:29:05;12.82;;;2.00;;
77868;SDS011;67231;59.144;37.934;2023-05-08T15:31:31;6.72;;;1.85;;
77868;SDS011;67231;59.144;37.934;2023-05-08T15:33:58;5.40;;;2.33;;
77868;SDS011;67231;59.144;37.934;2023-05-08T15:36:24;10.38;;;2.60;;
77868;SDS011;67231;59.144;37.934;2023-05-08T15:38:50;11.23;;;4.15;;
77868;SDS011;67231;59.144;37.934;2023-05-08T15:41:18;6.35;;;2.85;;
77868;SDS011;67231;59.144;37.934;2023-05-08T15:43:45;5.13;;;2.47;;
77868;SDS011;67231;59.144;37.934;2023-05-08T15:46:11;6.03;;;2.30;;
77868;SDS011;67231;59.144;37.934;2023-05-08T15:48:37;10.35;;;3.70;;
77868;SDS011;67231;59.144;37.934;2023-05-08T15:51:03;7.13;;;3.15;;
77868;SDS011;67231;59.144;37.934;2023-05-08T15:53:31;7.78;;;3.13;;
77868;SDS011;67231;59.144;37.934;2023-05-08T15:55:57;15.20;;;5.05;;
77868;SDS011;67231;59.144;37.934;2023-05-08T15:58:24;10.10;;;3.10;;
77868;SDS011;67231;59.144;37.934;2023-05-08T16:00:50;8.77;;;2.72;;